Time;durP1;ratioP1;P1;durP2;ratioP2;P2;SDS_P1;SDS_P2;PMS_P1;PMS_P2;Temp;Humidity;BMP_temperature;BMP_pressure;BME280_temperature;BME280_humidity;BME280_pressure;Samples;Min_cycle;Max_cycle;Signal;HPM_P1;HPM_P2
2022/08/26 00:01:09;;;;;;;;;;;25.40;93.00;;;;;;5037178;28;19943;-77
2022/08/26 00:03:36;;;;;;;;;;;25.40;93.00;;;;;;5037331;28;20032;-77
2022/08/26 00:06:02;;;;;;;;;;;25.40;93.10;;;;;;5037617;28;20287;-78
2022/08/26 00:08:29;;;;;;;;;;;25.40;93.20;;;;;;5037287;28;20296;-77
2022/08/26 00:10:57;;;;;;;;;;;25.40;93.30;;;;;;5036706;28;20364;-77
2022/08/26 00:13:24;;;;;;;;;;;25.40;93.80;;;;;;5036877;28;19921;-77
2022/08/26 00:15:51;;;;;;;;;;;25.40;93.50;;;;;;5036764;28;19925;-77
2022/08/26 00:18:18;;;;;;;;;;;25.40;93.60;;;;;;5036964;28;20008;-77
2022/08/26 00:20:45;;;;;;;;;;;25.40;93.70;;;;;;5036582;28;19928;-77
2022/08/26 00:23:12;;;;;;;;;;;25.40;93.80;;;;;;5036495;28;19927;-77
2022/08/26 00:25:39;;;;;;;;;;;25.40;93.90;;;;;;5036878;28;19921;-77
2022/08/26 00:28:07;;;;;;;;;;;25.40;93.90;;;;;;5036695;28;19921;-77
2022/08/26 00:30:34;;;;;;;;;;;25.40;94.00;;;;;;5036838;28;19950;-77
2022/08/26 00:33:01;;;;;;;;;;;25.40;94.10;;;;;;5036451;28;19921;-77
2022/08/26 00:35:28;;;;;;;;;;;25.40;94.10;;;;;;5036595;28;19921;-77
2022/08/26 00:37:55;;;;;;;;;;;25.40;94.10;;;;;;5036462;28;19929;-77
2022/08/26 00:40:23;;;;;;;;;;;25.40;94.20;;;;;;5036744;28;19943;-77
2022/08/26 00:42:50;;;;;;;;;;;25.40;94.30;;;;;;5036977;28;19921;-78
2022/08/26 00:45:18;;;;;;;;;;;25.40;94.40;;;;;;5036935;28;20011;-78
2022/08/26 00:47:46;;;;;;;;;;;25.40;94.40;;;;;;5036754;28;20395;-78
2022/08/26 00:50:15;;;;;;;;;;;25.40;94.50;;;;;;5036834;28;19921;-78
2022/08/26 00:52:42;;;;;;;;;;;25.40;94.60;;;;;;5036391;28;19971;-77
2022/08/26 00:55:12;;;;;;;;;;;25.40;94.70;;;;;;5036603;28;20032;-77
2022/08/26 00:57:38;;;;;;;;;;;25.40;94.80;;;;;;5037110;28;19925;-78
2022/08/26 04:47:58;;;;;;;;;;;25.30;95.70;;;;;;5684209;22;19921;-76
2022/08/26 04:50:25;;;;;;;;;;;25.30;95.70;;;;;;5035789;28;19976;-76
2022/08/26 04:52:52;;;;;;;;;;;25.30;95.70;;;;;;5036023;28;19921;-76
2022/08/26 04:55:19;;;;;;;;;;;25.30;95.70;;;;;;5036073;28;19927;-75
2022/08/26 04:57:45;;;;;;;;;;;25.30;95.80;;;;;;5035467;28;19964;-75
2022/08/26 05:00:12;;;;;;;;;;;25.30;95.80;;;;;;5035659;28;20399;-75
2022/08/26 05:02:39;;;;;;;;;;;25.30;95.80;;;;;;5035898;28;20016;-75
2022/08/26 05:05:08;;;;;;;;;;;25.30;95.80;;;;;;5035669;28;20269;-76
2022/08/26 05:07:35;;;;;;;;;;;25.30;95.80;;;;;;5035305;28;20355;-76
2022/08/26 05:10:03;;;;;;;;;;;25.30;95.90;;;;;;5035618;28;19921;-76
2022/08/26 05:12:29;;;;;;;;;;;25.30;95.90;;;;;;5035575;28;19921;-76
2022/08/26 05:14:56;;;;;;;;;;;25.30;95.90;;;;;;5035518;28;19921;-76
2022/08/26 05:17:23;;;;;;;;;;;25.30;96.00;;;;;;5035026;28;20364;-76
2022/08/26 05:19:50;;;;;;;;;;;25.30;96.00;;;;;;5035726;28;19929;-76
2022/08/26 05:22:18;;;;;;;;;;;25.30;96.00;;;;;;5035684;28;19925;-75
2022/08/26 05:24:45;;;;;;;;;;;25.30;96.10;;;;;;5037396;28;19925;-79
2022/08/26 05:27:12;;;;;;;;;;;25.30;96.10;;;;;;5040272;28;19971;-80
2022/08/26 05:29:39;;;;;;;;;;;25.30;96.20;;;;;;5040645;28;19966;-81
2022/08/26 05:32:06;;;;;;;;;;;25.30;96.30;;;;;;5041443;28;19980;-81
2022/08/26 05:34:32;;;;;;;;;;;25.30;96.40;;;;;;5042320;28;20402;-81
2022/08/26 05:36:59;;;;;;;;;;;25.30;96.40;;;;;;5042203;28;20020;-82
2022/08/26 05:39:27;;;;;;;;;;;25.30;96.50;;;;;;5038696;28;20015;-81
2022/08/26 05:41:54;;;;;;;;;;;25.30;96.50;;;;;;5038622;28;19964;-79
2022/08/26 05:44:20;;;;;;;;;;;25.30;96.60;;;;;;5039853;28;19949;-80
2022/08/26 05:46:48;;;;;;;;;;;25.30;96.70;;;;;;5041379;28;20019;-79
2022/08/26 05:49:15;;;;;;;;;;;25.30;96.70;;;;;;5037829;28;19959;-79
2022/08/26 05:51:45;;;;;;;;;;;25.30;96.80;;;;;;5037585;28;19921;-79
2022/08/26 05:54:11;;;;;;;;;;;25.30;96.80;;;;;;5037683;28;20276;-79
2022/08/26 05:56:40;;;;;;;;;;;25.30;96.90;;;;;;5038231;28;20023;-79
2022/08/26 05:59:08;;;;;;;;;;;25.30;97.00;;;;;;5037573;28;20019;-79
2022/08/26 06:01:34;;;;;;;;;;;25.30;97.10;;;;;;5037904;28;19921;-79
2022/08/26 06:04:01;;;;;;;;;;;25.30;97.10;;;;;;5036971;28;20430;-79
2022/08/26 06:06:29;;;;;;;;;;;25.30;97.20;;;;;;5037166;28;19992;-80
2022/08/26 06:08:57;;;;;;;;;;;25.30;97.20;;;;;;5038121;28;20023;-80
2022/08/26 06:11:25;;;;;;;;;;;25.30;97.30;;;;;;5037905;28;20384;-80
2022/08/26 06:13:54;;;;;;;;;;;25.30;97.30;;;;;;5037501;28;19921;-80
2022/08/26 06:16:22;;;;;;;;;;;25.30;97.40;;;;;;5037894;28;19921;-80
2022/08/26 06:18:49;;;;;;;;;;;25.30;97.50;;;;;;5038168;28;19925;-80
2022/08/26 06:21:17;;;;;;;;;;;25.30;97.50;;;;;;5037413;28;20020;-80
2022/08/26 06:26:29;;;;;;;;;;;25.30;97.60;;;;;;5038475;28;19927;-80
2022/08/26 06:28:57;;;;;;;;;;;25.30;97.70;;;;;;5037450;28;20459;-80
2022/08/26 06:31:24;;;;;;;;;;;25.30;97.70;;;;;;5037675;28;20373;-80
2022/08/26 06:33:51;;;;;;;;;;;25.30;97.80;;;;;;5038215;28;20359;-80
2022/08/26 06:36:19;;;;;;;;;;;25.30;97.80;;;;;;5039540;28;19988;-80
2022/08/26 06:38:47;;;;;;;;;;;25.30;97.80;;;;;;5039387;28;20012;-80
2022/08/26 06:41:13;;;;;;;;;;;25.30;97.80;;;;;;5038853;28;20016;-80
2022/08/26 06:43:40;;;;;;;;;;;25.30;97.80;;;;;;5039352;28;19961;-80
2022/08/26 06:46:10;;;;;;;;;;;25.30;97.80;;;;;;5038978;28;19968;-80
2022/08/26 06:48:38;;;;;;;;;;;25.30;97.80;;;;;;5039140;28;20451;-80
2022/08/26 06:51:05;;;;;;;;;;;25.30;97.80;;;;;;5039143;28;19921;-80
2022/08/26 06:53:32;;;;;;;;;;;25.30;97.80;;;;;;5037982;28;20012;-80
2022/08/26 06:55:59;;;;;;;;;;;25.30;97.90;;;;;;5038320;28;20474;-80
2022/08/26 06:58:25;;;;;;;;;;;25.30;98.00;;;;;;5040017;28;20357;-79
2022/08/26 07:00:52;;;;;;;;;;;25.30;98.10;;;;;;5040779;28;19975;-79
2022/08/26 07:03:21;;;;;;;;;;;25.30;98.20;;;;;;5040001;28;19987;-80
2022/08/26 07:05:47;;;;;;;;;;;25.30;98.30;;;;;;5037243;28;19927;-80
2022/08/26 07:08:14;;;;;;;;;;;25.30;98.40;;;;;;5035827;28;19921;-80
2022/08/26 07:10:41;;;;;;;;;;;25.30;98.40;;;;;;5035534;28;19921;-79
2022/08/26 07:13:08;;;;;;;;;;;25.30;98.50;;;;;;5035626;28;19921;-78
2022/08/26 07:15:35;;;;;;;;;;;25.30;98.60;;;;;;5035380;28;19944;-81
2022/08/26 07:18:02;;;;;;;;;;;25.30;98.70;;;;;;5034921;28;19975;-81
2022/08/26 07:20:30;;;;;;;;;;;25.30;98.80;;;;;;5034859;28;19927;-83
2022/08/26 07:22:58;;;;;;;;;;;25.30;98.90;;;;;;5036433;28;19921;-79
2022/08/26 07:25:24;;;;;;;;;;;25.30;99.00;;;;;;5036228;28;19928;-79
2022/08/26 07:27:51;;;;;;;;;;;25.30;99.00;;;;;;5036194;28;19928;-80
2022/08/26 07:30:18;;;;;;;;;;;25.30;99.00;;;;;;5035251;28;19928;-82
2022/08/26 07:32:45;;;;;;;;;;;25.30;98.90;;;;;;5035163;28;20325;-82
2022/08/26 07:35:11;;;;;;;;;;;25.30;98.90;;;;;;5034419;28;20343;-84
2022/08/26 07:37:39;;;;;;;;;;;25.30;98.80;;;;;;5033977;28;20280;-83
2022/08/26 07:40:08;;;;;;;;;;;25.30;98.70;;;;;;5034585;28;19921;-83
2022/08/26 07:42:34;;;;;;;;;;;25.30;98.40;;;;;;5037987;28;20436;-83
2022/08/26 07:45:03;;;;;;;;;;;25.20;98.10;;;;;;5039644;28;19927;-82
2022/08/26 07:47:30;;;;;;;;;;;25.20;97.80;;;;;;5038997;28;19976;-82
2022/08/26 07:49:57;;;;;;;;;;;25.20;97.80;;;;;;5038449;28;20012;-83
2022/08/26 07:52:25;;;;;;;;;;;25.20;97.60;;;;;;5038477;28;19921;-77
2022/08/26 07:54:53;;;;;;;;;;;25.10;97.20;;;;;;5037260;28;19927;-77
2022/08/26 07:57:20;;;;;;;;;;;25.10;97.00;;;;;;5037108;28;20373;-77
2022/08/26 07:59:46;;;;;;;;;;;25.10;96.70;;;;;;5037151;28;20395;-77
2022/08/26 08:02:13;;;;;;;;;;;25.10;96.40;;;;;;5037118;28;19964;-77
2022/08/26 08:04:40;;;;;;;;;;;25.10;96.20;;;;;;5037164;28;19931;-77
2022/08/26 08:07:06;;;;;;;;;;;25.10;95.90;;;;;;5037782;28;19921;-78
2022/08/26 08:09:33;;;;;;;;;;;25.10;95.70;;;;;;5037859;28;19921;-78
2022/08/26 08:12:01;;;;;;;;;;;25.10;95.30;;;;;;5036873;28;19925;-77
2022/08/26 08:14:28;;;;;;;;;;;25.10;95.30;;;;;;5038201;28;20299;-77
2022/08/26 08:16:54;;;;;;;;;;;25.10;95.10;;;;;;5037134;28;20451;-77
2022/08/26 08:19:21;;;;;;;;;;;25.10;94.90;;;;;;5037774;28;19975;-77
2022/08/26 08:21:48;;;;;;;;;;;25.10;94.60;;;;;;5039337;28;19927;-77
2022/08/26 08:24:15;;;;;;;;;;;25.10;94.30;;;;;;5040027;28;20011;-77
2022/08/26 08:26:42;;;;;;;;;;;25.10;94.20;;;;;;5036600;28;19921;-77
2022/08/26 08:29:10;;;;;;;;;;;25.10;94.00;;;;;;5036639;28;19971;-77
2022/08/26 08:31:36;;;;;;;;;;;25.10;93.90;;;;;;5036855;28;20395;-77
2022/08/26 08:34:03;;;;;;;;;;;25.10;93.60;;;;;;5037974;28;20357;-78
2022/08/26 08:36:30;;;;;;;;;;;25.10;93.40;;;;;;5039153;28;20011;-77
2022/08/26 08:38:56;;;;;;;;;;;25.10;93.30;;;;;;5038169;28;20020;-77
2022/08/26 08:41:30;;;;;;;;;;;25.10;93.10;;;;;;5038144;28;19921;-77
2022/08/26 08:43:58;;;;;;;;;;;25.10;92.80;;;;;;5038111;28;19928;-78
2022/08/26 08:46:28;;;;;;;;;;;25.10;92.80;;;;;;5038538;28;20009;-77
2022/08/26 08:48:58;;;;;;;;;;;25.20;92.90;;;;;;5038892;28;20008;-77
2022/08/26 08:51:30;;;;;;;;;;;25.20;92.80;;;;;;5038257;28;19991;-78
2022/08/26 08:53:57;;;;;;;;;;;25.20;92.60;;;;;;5038380;28;19921;-78
2022/08/26 08:56:26;;;;;;;;;;;25.20;92.50;;;;;;5042524;28;20015;-78
2022/08/26 08:58:57;;;;;;;;;;;25.20;92.40;;;;;;5044929;28;19951;-78
2022/08/26 09:01:39;;;;;;;;;;;25.20;92.30;;;;;;5044229;28;19920;-76
2022/08/26 09:04:24;;;;;;;;;;;25.20;92.30;;;;;;5041476;28;20431;-77
2022/08/26 09:06:54;;;;;;;;;;;25.30;92.20;;;;;;5036540;28;19932;-78
2022/08/26 09:09:24;;;;;;;;;;;25.30;92.10;;;;;;5044092;28;19925;-78
2022/08/26 09:11:51;;;;;;;;;;;25.30;92.00;;;;;;5044666;28;19932;-80
2022/08/26 09:14:19;;;;;;;;;;;25.30;91.90;;;;;;5044622;28;20016;-77
2022/08/26 09:16:50;;;;;;;;;;;25.30;91.80;;;;;;5043583;28;19921;-78
2022/08/26 09:19:21;;;;;;;;;;;25.30;91.70;;;;;;5043741;28;19929;-78
2022/08/26 09:21:56;;;;;;;;;;;25.30;91.60;;;;;;5043464;28;19921;-78
2022/08/26 09:24:23;;;;;;;;;;;25.30;91.50;;;;;;5041469;28;19927;-79
2022/08/26 09:26:51;;;;;;;;;;;25.30;91.50;;;;;;5037384;28;19921;-80
2022/08/26 09:29:22;;;;;;;;;;;25.30;91.40;;;;;;5036096;28;20400;-73
2022/08/26 09:31:49;;;;;;;;;;;25.30;91.30;;;;;;5035474;28;19975;-75
2022/08/26 09:34:17;;;;;;;;;;;25.30;91.20;;;;;;5035766;28;19928;-75
2022/08/26 09:36:45;;;;;;;;;;;25.30;91.10;;;;;;5035437;28;19920;-74
2022/08/26 14:09:02;;;;;;;;;;;25.50;86.30;;;;;;5013664;28;20289;-77
2022/08/26 14:11:29;;;;;;;;;;;25.60;86.50;;;;;;5014750;28;19921;-77
2022/08/26 14:13:56;;;;;;;;;;;25.50;86.50;;;;;;5015020;28;19925;-77
2022/08/26 14:16:24;;;;;;;;;;;25.60;86.70;;;;;;5014945;28;20012;-77
2022/08/26 14:18:51;;;;;;;;;;;25.60;86.80;;;;;;5014802;28;19922;-77
2022/08/26 14:21:18;;;;;;;;;;;25.60;86.90;;;;;;5014603;28;19957;-77
2022/08/26 14:23:45;;;;;;;;;;;25.60;87.00;;;;;;5014498;28;19921;-77
2022/08/26 14:26:13;;;;;;;;;;;25.60;87.10;;;;;;5014777;28;19927;-77
2022/08/26 14:28:40;;;;;;;;;;;25.60;87.10;;;;;;5014733;28;19927;-77
2022/08/26 14:31:07;;;;;;;;;;;25.60;87.20;;;;;;5014639;28;19926;-77
2022/08/26 14:33:36;;;;;;;;;;;25.60;87.20;;;;;;5014402;28;19928;-77
2022/08/26 14:38:44;;;;;;;;;;;25.60;87.40;;;;;;5013908;28;19922;-77
2022/08/26 14:41:13;;;;;;;;;;;25.60;87.50;;;;;;5014818;28;19921;-77
2022/08/26 14:43:43;;;;;;;;;;;25.60;87.40;;;;;;5014508;28;19928;-77
2022/08/26 14:46:10;;;;;;;;;;;25.60;87.40;;;;;;5014492;28;19921;-77
2022/08/26 14:48:36;;;;;;;;;;;25.60;87.40;;;;;;5014341;28;19925;-77
2022/08/26 14:51:04;;;;;;;;;;;25.60;87.40;;;;;;5014070;28;19921;-77
2022/08/26 14:56:16;;;;;;;;;;;25.60;87.40;;;;;;5014533;28;19925;-77
2022/08/26 14:58:43;;;;;;;;;;;25.50;87.30;;;;;;5014235;28;19921;-77
2022/08/26 15:01:11;;;;;;;;;;;25.50;87.30;;;;;;5014020;28;20304;-77
2022/08/26 15:03:38;;;;;;;;;;;25.50;87.30;;;;;;5014255;28;20010;-77
2022/08/26 15:06:05;;;;;;;;;;;25.50;88.00;;;;;;5014252;28;20016;-77
2022/08/26 15:08:35;;;;;;;;;;;25.50;87.20;;;;;;5014382;28;19921;-75
2022/08/26 15:11:02;;;;;;;;;;;25.50;87.10;;;;;;5014155;28;19921;-74
2022/08/26 15:13:30;;;;;;;;;;;25.50;87.00;;;;;;5014178;28;19925;-74
2022/08/26 15:15:56;;;;;;;;;;;25.50;86.90;;;;;;5014338;28;19925;-74
2022/08/26 15:18:23;;;;;;;;;;;25.50;86.90;;;;;;5013982;28;19921;-74
2022/08/26 15:20:50;;;;;;;;;;;25.50;86.80;;;;;;5014667;28;19957;-80
2022/08/26 15:23:16;;;;;;;;;;;25.50;86.90;;;;;;5014801;28;19925;-74
2022/08/26 15:25:43;;;;;;;;;;;25.50;86.90;;;;;;5014189;28;19922;-74
2022/08/26 15:28:10;;;;;;;;;;;25.50;87.30;;;;;;5013684;28;20008;-75
2022/08/26 15:30:38;;;;;;;;;;;25.60;87.80;;;;;;5013743;28;20384;-75
2022/08/26 15:33:05;;;;;;;;;;;25.60;88.30;;;;;;5014023;28;19921;-75
2022/08/26 15:35:31;;;;;;;;;;;25.70;88.90;;;;;;5014030;28;19928;-75
2022/08/26 15:37:58;;;;;;;;;;;25.70;89.20;;;;;;5014907;28;20011;-76
2022/08/26 15:40:27;;;;;;;;;;;25.70;89.50;;;;;;5013743;28;19921;-77
2022/08/26 15:42:54;;;;;;;;;;;25.80;89.80;;;;;;5014062;28;19925;-76
2022/08/26 15:45:21;;;;;;;;;;;25.80;90.00;;;;;;5014224;28;19922;-76
2022/08/26 15:47:49;;;;;;;;;;;25.80;90.10;;;;;;5013778;28;19928;-75
2022/08/26 15:50:15;;;;;;;;;;;25.80;90.20;;;;;;5013973;28;19921;-76
2022/08/26 15:52:42;;;;;;;;;;;25.80;90.30;;;;;;5013793;28;20008;-76
2022/08/26 15:55:09;;;;;;;;;;;25.80;90.50;;;;;;5013840;28;20008;-76
2022/08/26 15:57:36;;;;;;;;;;;25.80;90.50;;;;;;5013829;28;19972;-75
2022/08/26 16:00:04;;;;;;;;;;;25.80;90.50;;;;;;5013430;28;19964;-75
2022/08/26 16:02:30;;;;;;;;;;;25.80;90.50;;;;;;5014405;28;19983;-75
2022/08/26 16:04:59;;;;;;;;;;;25.80;90.50;;;;;;5017356;28;19921;-72
2022/08/26 16:07:27;;;;;;;;;;;25.80;90.50;;;;;;5017164;28;19921;-73
2022/08/26 16:09:53;;;;;;;;;;;25.80;90.50;;;;;;5016824;28;19921;-73
2022/08/26 16:12:21;;;;;;;;;;;25.80;90.50;;;;;;5017021;28;19928;-73
2022/08/26 16:14:50;;;;;;;;;;;25.80;90.50;;;;;;5017301;28;19925;-72
2022/08/26 16:17:17;;;;;;;;;;;25.80;90.50;;;;;;5017110;28;20017;-72
2022/08/26 16:19:43;;;;;;;;;;;25.70;90.50;;;;;;5017074;28;19921;-72
2022/08/26 16:22:11;;;;;;;;;;;25.80;90.50;;;;;;5017090;28;19921;-73
2022/08/26 16:24:38;;;;;;;;;;;25.70;90.50;;;;;;5016485;28;19972;-72
2022/08/26 16:27:05;;;;;;;;;;;25.70;90.50;;;;;;5016641;28;20021;-73
2022/08/26 16:29:31;;;;;;;;;;;25.70;90.50;;;;;;5016895;28;19921;-72
2022/08/26 16:31:58;;;;;;;;;;;25.70;90.50;;;;;;5016879;28;19960;-72
2022/08/26 16:34:25;;;;;;;;;;;25.70;90.40;;;;;;5016806;28;19927;-72
2022/08/26 16:36:51;;;;;;;;;;;25.70;90.30;;;;;;5016758;28;20013;-72
2022/08/26 16:39:19;;;;;;;;;;;25.70;90.30;;;;;;5016340;28;20336;-72
2022/08/26 16:41:46;;;;;;;;;;;25.70;90.20;;;;;;5016702;28;19928;-72
2022/08/26 16:44:13;;;;;;;;;;;25.70;90.20;;;;;;5016658;28;20021;-72
2022/08/26 16:46:39;;;;;;;;;;;25.60;90.10;;;;;;5016552;28;20016;-73
2022/08/26 16:49:06;;;;;;;;;;;25.60;90.10;;;;;;5016567;28;19973;-73
2022/08/26 16:51:33;;;;;;;;;;;25.60;90.00;;;;;;5016485;28;19922;-73
2022/08/26 16:54:01;;;;;;;;;;;25.60;90.00;;;;;;5016471;28;19943;-73
2022/08/26 16:56:30;;;;;;;;;;;25.60;89.90;;;;;;5016101;28;20388;-72
2022/08/26 16:58:57;;;;;;;;;;;25.60;89.80;;;;;;5016180;28;19921;-73
2022/08/26 17:01:23;;;;;;;;;;;25.60;89.70;;;;;;5016003;28;20007;-73
2022/08/26 17:03:51;;;;;;;;;;;25.60;89.60;;;;;;5016288;28;20288;-73
2022/08/26 17:06:18;;;;;;;;;;;25.60;89.50;;;;;;5016171;28;19929;-73
2022/08/26 17:08:44;;;;;;;;;;;25.60;89.40;;;;;;5016011;28;19921;-72
2022/08/26 17:11:11;;;;;;;;;;;25.60;89.30;;;;;;5016145;28;19921;-72
2022/08/26 17:13:39;;;;;;;;;;;25.60;89.30;;;;;;5015761;28;19925;-72
2022/08/26 17:16:07;;;;;;;;;;;25.60;89.10;;;;;;5015723;28;20384;-73
2022/08/26 17:18:35;;;;;;;;;;;25.60;88.90;;;;;;5015573;28;19921;-73
2022/08/26 17:21:03;;;;;;;;;;;25.60;88.70;;;;;;5015901;28;19928;-72
2022/08/26 17:23:29;;;;;;;;;;;25.50;88.50;;;;;;5015705;28;19965;-72
2022/08/26 17:25:56;;;;;;;;;;;25.50;88.30;;;;;;5015703;28;20028;-73
2022/08/26 17:28:23;;;;;;;;;;;25.50;88.20;;;;;;5015806;28;20258;-73
2022/08/26 17:30:51;;;;;;;;;;;25.50;88.10;;;;;;5015777;28;20000;-74
2022/08/26 17:33:18;;;;;;;;;;;25.50;88.00;;;;;;5015406;28;19925;-75
2022/08/26 17:35:45;;;;;;;;;;;25.50;87.90;;;;;;5015853;28;19984;-74
2022/08/26 17:38:12;;;;;;;;;;;25.50;87.80;;;;;;5015526;28;19925;-74
2022/08/26 17:40:39;;;;;;;;;;;25.50;87.80;;;;;;5015813;28;20108;-76
2022/08/26 17:43:05;;;;;;;;;;;25.50;87.70;;;;;;5016818;28;19960;-81
2022/08/26 17:45:32;;;;;;;;;;;25.50;87.70;;;;;;5025141;28;19922;-80
2022/08/26 17:48:00;;;;;;;;;;;25.50;87.60;;;;;;5025509;28;19922;-80
2022/08/26 17:50:27;;;;;;;;;;;25.50;87.70;;;;;;5026250;28;19967;-81
2022/08/26 17:52:53;;;;;;;;;;;25.50;87.60;;;;;;5026983;28;19956;-80
2022/08/26 17:55:20;;;;;;;;;;;25.60;87.70;;;;;;5027466;28;19928;-80
2022/08/26 17:57:47;;;;;;;;;;;25.60;87.70;;;;;;5027845;28;19985;-79
2022/08/26 18:00:15;;;;;;;;;;;25.60;87.70;;;;;;5028129;28;19921;-79
2022/08/26 18:02:42;;;;;;;;;;;25.60;87.70;;;;;;5027942;28;19921;-80
2022/08/26 18:05:11;;;;;;;;;;;25.60;87.70;;;;;;5026549;28;19948;-81
2022/08/26 18:07:38;;;;;;;;;;;25.60;87.70;;;;;;5027920;28;19928;-80
2022/08/26 18:10:05;;;;;;;;;;;25.60;87.80;;;;;;5025536;28;19921;-80
2022/08/26 18:12:32;;;;;;;;;;;25.60;87.70;;;;;;5026204;28;19929;-81
2022/08/26 18:14:59;;;;;;;;;;;25.60;87.80;;;;;;5026937;28;19926;-80
2022/08/26 18:17:25;;;;;;;;;;;25.60;87.80;;;;;;5026087;28;20351;-79
2022/08/26 18:19:53;;;;;;;;;;;25.60;87.80;;;;;;5027148;28;19921;-80
2022/08/26 18:22:22;;;;;;;;;;;25.60;87.80;;;;;;5025863;28;19967;-78
2022/08/26 18:24:49;;;;;;;;;;;25.60;87.90;;;;;;5026578;28;19925;-79
2022/08/26 18:27:15;;;;;;;;;;;25.60;87.90;;;;;;5026599;28;19948;-80
2022/08/26 18:29:42;;;;;;;;;;;25.60;88.00;;;;;;5026055;28;19993;-80
2022/08/26 18:32:09;;;;;;;;;;;25.60;88.00;;;;;;5024587;28;19925;-80
2022/08/26 18:34:35;;;;;;;;;;;25.60;88.00;;;;;;5025114;28;19972;-80
2022/08/26 18:37:02;;;;;;;;;;;25.60;88.00;;;;;;5028811;28;19989;-80
2022/08/26 18:39:30;;;;;;;;;;;25.60;88.10;;;;;;5028345;28;19993;-80
2022/08/26 18:41:57;;;;;;;;;;;25.60;88.10;;;;;;5027830;28;19922;-80
2022/08/26 18:44:24;;;;;;;;;;;25.60;88.20;;;;;;5027877;28;19921;-80
2022/08/26 18:46:51;;;;;;;;;;;25.60;88.20;;;;;;5026055;28;20338;-79
2022/08/26 18:49:18;;;;;;;;;;;25.60;88.20;;;;;;5030910;28;19981;-79
2022/08/26 18:51:46;;;;;;;;;;;25.60;88.20;;;;;;5031345;28;20381;-79
2022/08/26 18:54:13;;;;;;;;;;;25.60;88.30;;;;;;5020717;28;19925;-79
2022/08/26 18:56:42;;;;;;;;;;;25.60;88.40;;;;;;5019547;28;19961;-79
2022/08/26 18:59:09;;;;;;;;;;;25.60;88.40;;;;;;5019848;28;19940;-79
2022/08/26 19:01:37;;;;;;;;;;;25.60;88.40;;;;;;5020875;28;19984;-80
2022/08/26 19:04:04;;;;;;;;;;;25.60;88.50;;;;;;5016575;28;20004;-80
2022/08/26 19:06:34;;;;;;;;;;;25.60;88.50;;;;;;5017373;28;19921;-80
2022/08/26 19:09:00;;;;;;;;;;;25.60;88.70;;;;;;5018491;28;20481;-80
2022/08/26 19:11:27;;;;;;;;;;;25.60;88.70;;;;;;5019613;28;19995;-80
2022/08/26 19:13:56;;;;;;;;;;;25.70;88.90;;;;;;5018218;28;20436;-80
2022/08/26 19:16:23;;;;;;;;;;;25.70;89.00;;;;;;5018194;28;19957;-81
2022/08/26 19:18:51;;;;;;;;;;;25.70;89.10;;;;;;5017391;28;20262;-80
2022/08/26 19:21:19;;;;;;;;;;;25.60;89.10;;;;;;5017566;28;19944;-79
2022/08/26 19:23:45;;;;;;;;;;;25.70;89.30;;;;;;5015332;28;20407;-76
2022/08/26 19:26:13;;;;;;;;;;;25.70;89.50;;;;;;5014096;28;19971;-76
2022/08/26 19:28:40;;;;;;;;;;;25.70;89.70;;;;;;5014125;28;19999;-77
2022/08/26 19:31:09;;;;;;;;;;;25.70;89.80;;;;;;5014229;28;20288;-77
2022/08/26 19:33:36;;;;;;;;;;;25.70;89.90;;;;;;5014171;28;19921;-77
2022/08/26 19:36:03;;;;;;;;;;;25.70;90.00;;;;;;5013964;28;20436;-75
2022/08/26 19:38:30;;;;;;;;;;;25.70;90.10;;;;;;5017903;28;19922;-75
2022/08/26 19:40:58;;;;;;;;;;;25.70;90.20;;;;;;5017441;28;20373;-75
2022/08/26 19:43:25;;;;;;;;;;;25.70;90.30;;;;;;5017989;28;19928;-74
2022/08/26 19:45:52;;;;;;;;;;;25.70;90.40;;;;;;5017729;28;19921;-75
2022/08/26 19:48:20;;;;;;;;;;;25.70;90.50;;;;;;5017942;28;20017;-75
2022/08/26 19:50:47;;;;;;;;;;;25.70;90.50;;;;;;5017966;28;19921;-75
2022/08/26 19:53:14;;;;;;;;;;;25.70;90.50;;;;;;5017887;28;19921;-75
2022/08/26 19:55:41;;;;;;;;;;;25.70;90.50;;;;;;5017289;28;20512;-74
2022/08/26 19:58:08;;;;;;;;;;;25.70;90.50;;;;;;5017114;28;20277;-74
2022/08/26 20:00:38;;;;;;;;;;;25.70;90.50;;;;;;5017448;28;19921;-74
2022/08/26 20:03:05;;;;;;;;;;;25.60;90.40;;;;;;5017420;28;19936;-74
2022/08/26 20:05:33;;;;;;;;;;;25.60;90.80;;;;;;5017534;28;19929;-74
2022/08/26 20:08:00;;;;;;;;;;;25.60;90.40;;;;;;5017384;28;20395;-74
2022/08/26 20:10:26;;;;;;;;;;;25.60;90.40;;;;;;5017124;28;20285;-74
2022/08/26 20:12:53;;;;;;;;;;;25.60;90.40;;;;;;5016982;28;20369;-74
2022/08/26 20:15:21;;;;;;;;;;;25.60;90.40;;;;;;5017251;28;19931;-74
2022/08/26 20:17:47;;;;;;;;;;;25.60;90.80;;;;;;5017089;28;20004;-74
2022/08/26 20:23:00;;;;;;;;;;;25.60;90.40;;;;;;5017243;28;19924;-74
2022/08/26 20:25:26;;;;;;;;;;;25.60;90.40;;;;;;5017025;28;19928;-74
2022/08/26 20:27:53;;;;;;;;;;;25.60;90.40;;;;;;5017218;28;19921;-73
2022/08/26 20:30:20;;;;;;;;;;;25.60;90.50;;;;;;5016917;28;20020;-73
2022/08/26 20:32:47;;;;;;;;;;;25.60;90.60;;;;;;5016906;28;20304;-73
2022/08/26 20:35:13;;;;;;;;;;;25.60;90.60;;;;;;5016561;28;19922;-73
2022/08/26 20:37:40;;;;;;;;;;;25.60;90.70;;;;;;5016715;28;20013;-73
2022/08/26 20:40:14;;;;;;;;;;;25.60;90.70;;;;;;5016696;28;20324;-73
2022/08/26 20:42:41;;;;;;;;;;;25.60;90.70;;;;;;5016420;28;20384;-73
2022/08/26 20:45:08;;;;;;;;;;;25.60;90.70;;;;;;5016349;28;19929;-73
2022/08/26 20:47:34;;;;;;;;;;;25.60;90.80;;;;;;5016667;28;19921;-74
2022/08/26 20:50:02;;;;;;;;;;;25.60;90.80;;;;;;5015958;28;20013;-74
2022/08/26 20:52:28;;;;;;;;;;;25.60;90.80;;;;;;5016531;28;19922;-74
2022/08/26 20:54:55;;;;;;;;;;;25.60;90.80;;;;;;5016449;28;19921;-74
2022/08/26 20:57:23;;;;;;;;;;;25.60;90.90;;;;;;5016384;28;20029;-74
2022/08/26 20:59:50;;;;;;;;;;;25.60;90.90;;;;;;5016469;28;19922;-74
2022/08/26 21:02:17;;;;;;;;;;;25.60;90.90;;;;;;5016503;28;19921;-74
2022/08/26 21:04:43;;;;;;;;;;;25.60;90.90;;;;;;5016002;28;20388;-74
2022/08/26 21:07:10;;;;;;;;;;;25.60;90.90;;;;;;5016392;28;20412;-75
2022/08/26 21:09:37;;;;;;;;;;;25.60;91.00;;;;;;5015843;28;19927;-76
2022/08/26 21:12:03;;;;;;;;;;;25.60;91.00;;;;;;5015852;28;19928;-76
2022/08/26 21:14:31;;;;;;;;;;;25.60;91.00;;;;;;5016081;28;19925;-76
2022/08/26 21:16:58;;;;;;;;;;;25.60;91.00;;;;;;5016035;28;19921;-75
2022/08/26 21:19:25;;;;;;;;;;;25.60;91.10;;;;;;5016237;28;20028;-75
2022/08/26 21:21:52;;;;;;;;;;;25.60;91.10;;;;;;5015536;28;20369;-75
2022/08/26 21:24:18;;;;;;;;;;;25.60;91.20;;;;;;5015886;28;20341;-76
2022/08/26 21:26:45;;;;;;;;;;;25.60;91.20;;;;;;5015796;28;19968;-76
2022/08/26 21:29:13;;;;;;;;;;;25.60;91.20;;;;;;5015847;28;20026;-76
2022/08/26 21:31:41;;;;;;;;;;;25.60;91.30;;;;;;5015876;28;19921;-76
2022/08/26 21:34:08;;;;;;;;;;;25.60;91.30;;;;;;5015718;28;20387;-76
2022/08/26 21:36:34;;;;;;;;;;;25.60;91.30;;;;;;5015420;28;20015;-77
2022/08/26 21:39:01;;;;;;;;;;;25.60;91.40;;;;;;5015926;28;19925;-76
2022/08/26 21:41:28;;;;;;;;;;;25.60;91.40;;;;;;5015474;28;19928;-76
2022/08/26 21:43:57;;;;;;;;;;;25.60;91.40;;;;;;5015652;28;19921;-76
2022/08/26 21:46:25;;;;;;;;;;;25.60;91.50;;;;;;5015502;28;19952;-76
2022/08/26 21:48:54;;;;;;;;;;;25.50;91.50;;;;;;5015399;28;19976;-76
2022/08/26 21:51:22;;;;;;;;;;;25.60;91.60;;;;;;5015427;28;19925;-76
2022/08/26 21:53:48;;;;;;;;;;;25.50;91.60;;;;;;5015389;28;19928;-76
2022/08/26 21:56:16;;;;;;;;;;;25.60;91.70;;;;;;5015367;28;19945;-76
2022/08/26 21:58:43;;;;;;;;;;;25.60;91.70;;;;;;5015236;28;19921;-76
2022/08/26 22:01:11;;;;;;;;;;;25.60;91.80;;;;;;5013974;28;19921;-76
2022/08/26 22:03:38;;;;;;;;;;;25.60;91.90;;;;;;5015234;28;20357;-76
2022/08/26 22:06:06;;;;;;;;;;;25.60;91.90;;;;;;5015217;28;19975;-76
2022/08/26 22:08:33;;;;;;;;;;;25.60;92.00;;;;;;5014843;28;19928;-76
2022/08/26 22:11:00;;;;;;;;;;;25.60;92.10;;;;;;5015146;28;19922;-77
2022/08/26 22:13:29;;;;;;;;;;;25.60;92.20;;;;;;5014740;28;19925;-77
2022/08/26 22:15:59;;;;;;;;;;;25.60;92.20;;;;;;5014644;28;20296;-76
2022/08/26 22:18:26;;;;;;;;;;;25.60;92.30;;;;;;5014899;28;19921;-76
2022/08/26 22:20:54;;;;;;;;;;;25.60;92.40;;;;;;5014541;28;20357;-76
2022/08/26 22:23:22;;;;;;;;;;;25.60;92.50;;;;;;5014857;28;19940;-76
2022/08/26 22:25:49;;;;;;;;;;;25.60;92.60;;;;;;5015039;28;19959;-78
2022/08/26 22:28:17;;;;;;;;;;;25.60;92.80;;;;;;5015137;28;20381;-77
2022/08/26 22:30:44;;;;;;;;;;;25.60;93.00;;;;;;5015024;28;19943;-77
2022/08/26 22:33:12;;;;;;;;;;;25.60;93.10;;;;;;5014879;28;20466;-77
2022/08/26 22:35:39;;;;;;;;;;;25.60;93.00;;;;;;5014770;28;20007;-77
2022/08/26 22:38:06;;;;;;;;;;;25.60;93.10;;;;;;5014893;28;19921;-77
2022/08/26 22:40:34;;;;;;;;;;;25.60;93.30;;;;;;5014774;28;19921;-77
2022/08/26 22:43:01;;;;;;;;;;;25.60;93.40;;;;;;5017350;28;19931;-77
2022/08/26 22:45:30;;;;;;;;;;;25.60;93.50;;;;;;5018455;28;19921;-78